sensor_id;sensor_type;location;lat;lon;timestamp;pressure;altitude;pressure_sealevel;temperature;humidity
50394;BME280;36308;46.312;25.288;2023-02-20T00:01:29;95943.84;;;4.70;75.37
50394;BME280;36308;46.312;25.288;2023-02-20T00:03:55;95956.56;;;4.68;75.55
50394;BME280;36308;46.312;25.288;2023-02-20T00:06:21;95957.03;;;4.65;75.30
50394;BME280;36308;46.312;25.288;2023-02-20T00:08:46;95963.38;;;4.64;75.08
50394;BME280;36308;46.312;25.288;2023-02-20T00:11:12;95968.72;;;4.64;75.08
50394;BME280;36308;46.312;25.288;2023-02-20T00:13:37;95970.03;;;4.55;75.19
50394;BME280;36308;46.312;25.288;2023-02-20T00:16:03;95975.09;;;4.63;75.07
50394;BME280;36308;46.312;25.288;2023-02-20T00:18:29;95973.91;;;4.59;74.91
50394;BME280;36308;46.312;25.288;2023-02-20T00:20:54;95979.22;;;4.59;74.98
50394;BME280;36308;46.312;25.288;2023-02-20T00:23:20;95985.13;;;4.61;75.00
50394;BME280;36308;46.312;25.288;2023-02-20T00:25:45;95987.81;;;4.61;74.43
50394;BME280;36308;46.312;25.288;2023-02-20T00:28:11;95989.41;;;4.62;74.48
50394;BME280;36308;46.312;25.288;2023-02-20T00:30:36;95975.50;;;4.60;75.11
50394;BME280;36308;46.312;25.288;2023-02-20T00:33:02;95989.22;;;4.63;74.64
50394;BME280;36308;46.312;25.288;2023-02-20T00:35:27;95971.06;;;4.54;74.79
50394;BME280;36308;46.312;25.288;2023-02-20T00:37:54;95976.09;;;4.62;74.76
50394;BME280;36308;46.312;25.288;2023-02-20T00:40:21;95979.81;;;4.61;74.46
50394;BME280;36308;46.312;25.288;2023-02-20T00:42:48;95987.41;;;4.57;74.75
50394;BME280;36308;46.312;25.288;2023-02-20T00:45:16;95990.28;;;4.56;74.62
50394;BME280;36308;46.312;25.288;2023-02-20T00:47:42;95982.97;;;4.51;74.64
50394;BME280;36308;46.312;25.288;2023-02-20T00:50:11;96001.41;;;4.53;74.73
50394;BME280;36308;46.312;25.288;2023-02-20T00:52:37;96005.09;;;4.52;74.71
50394;BME280;36308;46.312;25.288;2023-02-20T00:55:04;95988.41;;;4.38;74.80
50394;BME280;36308;46.312;25.288;2023-02-20T00:57:29;96001.81;;;4.50;74.47
50394;BME280;36308;46.312;25.288;2023-02-20T00:59:55;96000.44;;;4.47;74.28
50394;BME280;36308;46.312;25.288;2023-02-20T01:02:21;95998.72;;;4.34;74.25
50394;BME280;36308;46.312;25.288;2023-02-20T01:04:46;96024.53;;;4.34;74.13
50394;BME280;36308;46.312;25.288;2023-02-20T01:07:12;96040.44;;;4.40;74.54
50394;BME280;36308;46.312;25.288;2023-02-20T01:09:37;96043.28;;;4.39;74.26
50394;BME280;36308;46.312;25.288;2023-02-20T01:12:03;96047.63;;;4.33;74.19
50394;BME280;36308;46.312;25.288;2023-02-20T01:14:28;96052.16;;;4.33;73.78
50394;BME280;36308;46.312;25.288;2023-02-20T01:16:54;96049.69;;;4.31;74.02
50394;BME280;36308;46.312;25.288;2023-02-20T01:19:20;96047.69;;;4.27;73.91
50394;BME280;36308;46.312;25.288;2023-02-20T01:21:46;96044.66;;;4.23;73.61
50394;BME280;36308;46.312;25.288;2023-02-20T01:24:14;96042.66;;;4.18;73.56
50394;BME280;36308;46.312;25.288;2023-02-20T01:26:41;96055.56;;;4.15;73.87
50394;BME280;36308;46.312;25.288;2023-02-20T01:29:07;96051.50;;;4.12;73.88
50394;BME280;36308;46.312;25.288;2023-02-20T01:31:33;96050.88;;;4.10;73.95
50394;BME280;36308;46.312;25.288;2023-02-20T01:33:58;96054.22;;;4.05;73.38
50394;BME280;36308;46.312;25.288;2023-02-20T01:36:24;96055.66;;;4.01;73.59
50394;BME280;36308;46.312;25.288;2023-02-20T01:38:51;96062.44;;;3.97;73.59
50394;BME280;36308;46.312;25.288;2023-02-20T01:41:17;96078.81;;;3.94;73.44
50394;BME280;36308;46.312;25.288;2023-02-20T01:43:44;96083.78;;;3.91;73.21
50394;BME280;36308;46.312;25.288;2023-02-20T01:49:01;96107.16;;;3.82;72.68
50394;BME280;36308;46.312;25.288;2023-02-20T01:51:35;96116.16;;;3.81;73.16
50394;BME280;36308;46.312;25.288;2023-02-20T01:54:04;96128.84;;;3.79;72.52
50394;BME280;36308;46.312;25.288;2023-02-20T01:56:31;96126.00;;;3.74;72.45
50394;BME280;36308;46.312;25.288;2023-02-20T01:58:57;96135.44;;;3.70;72.86
50394;BME280;36308;46.312;25.288;2023-02-20T02:01:22;96138.94;;;3.63;72.28
50394;BME280;36308;46.312;25.288;2023-02-20T02:03:54;96149.78;;;3.62;72.90
50394;BME280;36308;46.312;25.288;2023-02-20T02:06:21;96159.22;;;3.58;72.92
50394;BME280;36308;46.312;25.288;2023-02-20T02:08:47;96164.56;;;3.51;72.63
50394;BME280;36308;46.312;25.288;2023-02-20T02:11:15;96161.69;;;3.46;72.22
50394;BME280;36308;46.312;25.288;2023-02-20T02:13:42;96158.84;;;3.41;72.12
50394;BME280;36308;46.312;25.288;2023-02-20T02:27:35;96166.25;;;3.19;72.53
50394;BME280;36308;46.312;25.288;2023-02-20T02:33:18;96169.34;;;3.09;71.78
50394;BME280;36308;46.312;25.288;2023-02-20T02:41:37;96187.34;;;3.00;72.61
50394;BME280;36308;46.312;25.288;2023-02-20T02:49:35;96204.09;;;2.94;71.62
50394;BME280;36308;46.312;25.288;2023-02-20T02:52:03;96209.22;;;2.89;72.11
50394;BME280;36308;46.312;25.288;2023-02-20T02:54:29;96209.41;;;2.88;71.90
50394;BME280;36308;46.312;25.288;2023-02-20T02:57:18;96225.78;;;2.85;71.35
50394;BME280;36308;46.312;25.288;2023-02-20T02:59:46;96218.19;;;2.81;71.68
50394;BME280;36308;46.312;25.288;2023-02-20T03:02:14;96232.91;;;2.77;71.51
50394;BME280;36308;46.312;25.288;2023-02-20T03:04:44;96233.31;;;2.74;71.45
50394;BME280;36308;46.312;25.288;2023-02-20T03:07:13;96232.09;;;2.70;70.93
50394;BME280;36308;46.312;25.288;2023-02-20T03:10:08;96245.13;;;2.65;70.82
50394;BME280;36308;46.312;25.288;2023-02-20T03:12:39;96217.75;;;2.45;71.42
50394;BME280;36308;46.312;25.288;2023-02-20T03:15:12;96251.88;;;2.61;70.77
50394;BME280;36308;46.312;25.288;2023-02-20T03:21:19;96252.91;;;2.53;70.80
50394;BME280;36308;46.312;25.288;2023-02-20T03:23:52;96259.41;;;2.51;70.61
50394;BME280;36308;46.312;25.288;2023-02-20T03:26:22;96259.81;;;2.48;70.50
50394;BME280;36308;46.312;25.288;2023-02-20T03:29:18;96251.63;;;2.42;70.99
50394;BME280;36308;46.312;25.288;2023-02-20T03:31:52;96256.31;;;2.40;70.62
50394;BME280;36308;46.312;25.288;2023-02-20T03:34:39;96247.34;;;2.35;70.54
50394;BME280;36308;46.312;25.288;2023-02-20T03:37:24;96257.97;;;2.35;70.07
50394;BME280;36308;46.312;25.288;2023-02-20T03:40:11;96255.69;;;2.32;70.40
50394;BME280;36308;46.312;25.288;2023-02-20T03:43:01;96247.47;;;2.20;70.84
50394;BME280;36308;46.312;25.288;2023-02-20T03:45:48;96266.28;;;2.25;70.24
50394;BME280;36308;46.312;25.288;2023-02-20T03:48:20;96259.94;;;2.19;69.87
50394;BME280;36308;46.312;25.288;2023-02-20T03:50:47;96271.56;;;2.18;69.82
50394;BME280;36308;46.312;25.288;2023-02-20T03:53:13;96271.75;;;2.17;69.40
50394;BME280;36308;46.312;25.288;2023-02-20T03:55:40;96275.22;;;2.11;69.69
50394;BME280;36308;46.312;25.288;2023-02-20T03:58:08;96277.03;;;2.04;69.68
50394;BME280;36308;46.312;25.288;2023-02-20T04:00:40;96290.66;;;2.00;69.45
50394;BME280;36308;46.312;25.288;2023-02-20T04:03:14;96283.47;;;1.88;69.56
50394;BME280;36308;46.312;25.288;2023-02-20T04:05:44;96291.88;;;1.91;69.28
50394;BME280;36308;46.312;25.288;2023-02-20T04:08:16;96294.09;;;1.88;68.96
50394;BME280;36308;46.312;25.288;2023-02-20T04:10:46;96302.41;;;1.85;69.55
50394;BME280;36308;46.312;25.288;2023-02-20T04:13:14;96305.66;;;1.80;69.58
50394;BME280;36308;46.312;25.288;2023-02-20T04:15:42;96312.00;;;1.79;68.97
50394;BME280;36308;46.312;25.288;2023-02-20T04:18:10;96311.75;;;1.74;69.51
50394;BME280;36308;46.312;25.288;2023-02-20T04:20:38;96310.94;;;1.73;69.43
50394;BME280;36308;46.312;25.288;2023-02-20T04:23:12;96317.44;;;1.71;68.77
50394;BME280;36308;46.312;25.288;2023-02-20T04:28:09;96309.41;;;1.57;68.94
50394;BME280;36308;46.312;25.288;2023-02-20T04:30:35;96316.97;;;1.60;69.45
50394;BME280;36308;46.312;25.288;2023-02-20T04:33:01;96329.59;;;1.58;68.66
50394;BME280;36308;46.312;25.288;2023-02-20T04:35:26;96325.69;;;1.54;69.37
50394;BME280;36308;46.312;25.288;2023-02-20T04:37:52;96333.66;;;1.54;68.82
50394;BME280;36308;46.312;25.288;2023-02-20T04:40:20;96342.22;;;1.56;68.70
50394;BME280;36308;46.312;25.288;2023-02-20T04:42:46;96360.16;;;1.54;69.01
50394;BME280;36308;46.312;25.288;2023-02-20T04:45:11;96357.50;;;1.54;69.06
50394;BME280;36308;46.312;25.288;2023-02-20T04:47:37;96370.94;;;1.53;68.82
50394;BME280;36308;46.312;25.288;2023-02-20T04:50:04;96377.25;;;1.52;68.55
50394;BME280;36308;46.312;25.288;2023-02-20T04:52:30;96383.75;;;1.49;68.42
50394;BME280;36308;46.312;25.288;2023-02-20T04:54:55;96387.41;;;1.48;68.71
50394;BME280;36308;46.312;25.288;2023-02-20T04:57:21;96393.72;;;1.47;68.43
50394;BME280;36308;46.312;25.288;2023-02-20T04:59:47;96389.63;;;1.45;68.56
50394;BME280;36308;46.312;25.288;2023-02-20T05:02:13;96401.03;;;1.45;68.31
50394;BME280;36308;46.312;25.288;2023-02-20T05:04:39;96390.81;;;1.42;68.18
50394;BME280;36308;46.312;25.288;2023-02-20T05:07:05;96393.47;;;1.42;67.88
50394;BME280;36308;46.312;25.288;2023-02-20T05:09:30;96398.16;;;1.40;66.71
50394;BME280;36308;46.312;25.288;2023-02-20T05:11:56;96400.53;;;1.35;67.21
50394;BME280;36308;46.312;25.288;2023-02-20T05:14:22;96403.56;;;1.32;67.11
50394;BME280;36308;46.312;25.288;2023-02-20T05:16:48;96410.88;;;1.30;66.91
50394;BME280;36308;46.312;25.288;2023-02-20T05:19:16;96410.88;;;1.30;67.36
50394;BME280;36308;46.312;25.288;2023-02-20T05:21:43;96383.22;;;1.11;66.91
50394;BME280;36308;46.312;25.288;2023-02-20T05:24:27;96418.22;;;1.28;67.58
50394;BME280;36308;46.312;25.288;2023-02-20T05:26:53;96440.22;;;1.28;67.71
50394;BME280;36308;46.312;25.288;2023-02-20T05:29:19;96438.75;;;1.26;66.70
50394;BME280;36308;46.312;25.288;2023-02-20T05:31:45;96436.50;;;1.23;66.91
50394;BME280;36308;46.312;25.288;2023-02-20T05:34:10;96433.88;;;1.23;66.81
50394;BME280;36308;46.312;25.288;2023-02-20T05:36:36;96444.63;;;1.21;66.61
50394;BME280;36308;46.312;25.288;2023-02-20T05:39:02;96448.72;;;1.24;67.36
50394;BME280;36308;46.312;25.288;2023-02-20T05:41:28;96454.03;;;1.24;66.86
50394;BME280;36308;46.312;25.288;2023-02-20T05:43:53;96459.72;;;1.20;65.94
50394;BME280;36308;46.312;25.288;2023-02-20T05:46:22;96471.06;;;1.14;66.45
50394;BME280;36308;46.312;25.288;2023-02-20T05:48:49;96486.56;;;1.17;65.53
50394;BME280;36308;46.312;25.288;2023-02-20T05:51:26;96497.53;;;1.14;65.24
50394;BME280;36308;46.312;25.288;2023-02-20T05:53:52;96487.81;;;1.00;65.97
50394;BME280;36308;46.312;25.288;2023-02-20T05:56:18;96500.72;;;1.10;65.60
50394;BME280;36308;46.312;25.288;2023-02-20T05:58:44;96516.63;;;1.10;65.58
50394;BME280;36308;46.312;25.288;2023-02-20T06:01:29;96523.91;;;1.08;65.93
50394;BME280;36308;46.312;25.288;2023-02-20T06:03:55;96530.88;;;1.09;66.14
50394;BME280;36308;46.312;25.288;2023-02-20T06:06:21;96546.59;;;1.10;66.64
50394;BME280;36308;46.312;25.288;2023-02-20T06:08:47;96548.41;;;1.10;66.83
50394;BME280;36308;46.312;25.288;2023-02-20T06:11:14;96543.31;;;1.08;66.30
50394;BME280;36308;46.312;25.288;2023-02-20T06:13:43;96547.59;;;1.09;66.15
50394;BME280;36308;46.312;25.288;2023-02-20T06:16:10;96569.41;;;1.11;66.35
50394;BME280;36308;46.312;25.288;2023-02-20T06:18:40;96573.31;;;1.15;66.53
50394;BME280;36308;46.312;25.288;2023-02-20T06:21:10;96587.19;;;1.17;66.02
50394;BME280;36308;46.312;25.288;2023-02-20T06:23:36;96584.03;;;1.07;66.79
50394;BME280;36308;46.312;25.288;2023-02-20T06:26:03;96595.78;;;1.19;66.74
50394;BME280;36308;46.312;25.288;2023-02-20T06:28:29;96592.16;;;1.20;66.44
50394;BME280;36308;46.312;25.288;2023-02-20T06:30:54;96589.69;;;1.19;66.73
50394;BME280;36308;46.312;25.288;2023-02-20T06:33:20;96599.53;;;1.25;66.77
50394;BME280;36308;46.312;25.288;2023-02-20T06:35:45;96600.34;;;1.26;67.00
50394;BME280;36308;46.312;25.288;2023-02-20T06:38:11;96603.28;;;1.31;66.36
50394;BME280;36308;46.312;25.288;2023-02-20T06:40:37;96610.84;;;1.34;67.12
50394;BME280;36308;46.312;25.288;2023-02-20T06:43:03;96613.09;;;1.37;67.08
50394;BME280;36308;46.312;25.288;2023-02-20T06:45:29;96618.88;;;1.40;66.96
50394;BME280;36308;46.312;25.288;2023-02-20T06:47:55;96603.53;;;1.36;66.80
50394;BME280;36308;46.312;25.288;2023-02-20T06:50:20;96618.88;;;1.40;66.29
50394;BME280;36308;46.312;25.288;2023-02-20T06:52:46;96618.69;;;1.42;66.67
50394;BME280;36308;46.312;25.288;2023-02-20T06:55:11;96617.66;;;1.43;66.41
50394;BME280;36308;46.312;25.288;2023-02-20T06:57:37;96620.13;;;1.45;65.82
50394;BME280;36308;46.312;25.288;2023-02-20T07:00:03;96620.59;;;1.48;66.32
50394;BME280;36308;46.312;25.288;2023-02-20T07:02:29;96628.16;;;1.51;66.23
50394;BME280;36308;46.312;25.288;2023-02-20T07:04:54;96631.00;;;1.50;65.61
50394;BME280;36308;46.312;25.288;2023-02-20T07:07:20;96635.13;;;1.52;65.41
50394;BME280;36308;46.312;25.288;2023-02-20T07:09:45;96633.66;;;1.50;65.46
50394;BME280;36308;46.312;25.288;2023-02-20T07:12:11;96640.41;;;1.52;65.78
50394;BME280;36308;46.312;25.288;2023-02-20T07:14:37;96636.94;;;1.52;65.78
50394;BME280;36308;46.312;25.288;2023-02-20T07:17:02;96636.75;;;1.53;64.91
50394;BME280;36308;46.312;25.288;2023-02-20T07:19:28;96651.00;;;1.52;64.90
50394;BME280;36308;46.312;25.288;2023-02-20T07:21:53;96644.69;;;1.53;65.51
50394;BME280;36308;46.312;25.288;2023-02-20T07:24:19;96652.66;;;1.53;64.97
50394;BME280;36308;46.312;25.288;2023-02-20T07:26:44;96650.00;;;1.53;64.84
50394;BME280;36308;46.312;25.288;2023-02-20T07:29:11;96665.91;;;1.53;65.20
50394;BME280;36308;46.312;25.288;2023-02-20T07:31:37;96647.72;;;1.50;65.03
50394;BME280;36308;46.312;25.288;2023-02-20T07:34:03;96657.94;;;1.53;65.26
50394;BME280;36308;46.312;25.288;2023-02-20T07:36:29;96668.19;;;1.56;65.31
50394;BME280;36308;46.312;25.288;2023-02-20T07:38:56;96673.59;;;1.48;65.71
50394;BME280;36308;46.312;25.288;2023-02-20T07:41:23;96694.31;;;1.59;65.55
50394;BME280;36308;46.312;25.288;2023-02-20T07:43:49;96689.66;;;1.61;64.88
50394;BME280;36308;46.312;25.288;2023-02-20T07:46:16;96687.19;;;1.60;64.94
50394;BME280;36308;46.312;25.288;2023-02-20T07:48:42;96692.13;;;1.63;65.34
50394;BME280;36308;46.312;25.288;2023-02-20T07:51:07;96693.84;;;1.71;65.52
50394;BME280;36308;46.312;25.288;2023-02-20T07:53:33;96707.38;;;1.76;64.72
50394;BME280;36308;46.312;25.288;2023-02-20T07:55:58;96694.75;;;1.78;65.06
50394;BME280;36308;46.312;25.288;2023-02-20T07:58:24;96704.16;;;1.80;64.40
50394;BME280;36308;46.312;25.288;2023-02-20T08:00:50;96708.28;;;1.83;64.60
50394;BME280;36308;46.312;25.288;2023-02-20T08:03:18;96705.00;;;1.81;64.25
50394;BME280;36308;46.312;25.288;2023-02-20T08:05:44;96721.97;;;1.87;64.74
50394;BME280;36308;46.312;25.288;2023-02-20T08:08:09;96721.44;;;1.91;64.59
50394;BME280;36308;46.312;25.288;2023-02-20T08:10:35;96728.19;;;1.94;65.30
50394;BME280;36308;46.312;25.288;2023-02-20T08:13:01;96724.41;;;2.03;65.16
50394;BME280;36308;46.312;25.288;2023-02-20T08:15:27;96726.13;;;2.11;65.50
50394;BME280;36308;46.312;25.288;2023-02-20T08:17:52;96733.34;;;2.17;64.31
50394;BME280;36308;46.312;25.288;2023-02-20T08:20:19;96726.00;;;2.19;64.99
50394;BME280;36308;46.312;25.288;2023-02-20T08:22:45;96722.22;;;2.28;64.44
50394;BME280;36308;46.312;25.288;2023-02-20T08:25:12;96732.53;;;2.38;64.94
50394;BME280;36308;46.312;25.288;2023-02-20T08:27:42;96726.13;;;2.47;65.02
50394;BME280;36308;46.312;25.288;2023-02-20T08:30:11;96728.44;;;2.57;64.31
50394;BME280;36308;46.312;25.288;2023-02-20T08:32:37;96730.31;;;2.63;64.52
50394;BME280;36308;46.312;25.288;2023-02-20T08:35:03;96729.19;;;2.72;64.45
50394;BME280;36308;46.312;25.288;2023-02-20T08:37:29;96731.72;;;2.80;63.95
50394;BME280;36308;46.312;25.288;2023-02-20T08:39:54;96735.88;;;2.90;64.10
50394;BME280;36308;46.312;25.288;2023-02-20T08:42:21;96736.38;;;3.00;64.47
50394;BME280;36308;46.312;25.288;2023-02-20T08:44:47;96734.00;;;3.12;63.98
50394;BME280;36308;46.312;25.288;2023-02-20T08:47:12;96736.94;;;3.23;63.33
50394;BME280;36308;46.312;25.288;2023-02-20T08:49:37;96743.56;;;3.34;62.99
50394;BME280;36308;46.312;25.288;2023-02-20T08:52:03;96719.22;;;3.31;62.49
50394;BME280;36308;46.312;25.288;2023-02-20T08:54:30;96740.06;;;3.62;61.92
50394;BME280;36308;46.312;25.288;2023-02-20T08:56:55;96737.66;;;3.74;61.84
50394;BME280;36308;46.312;25.288;2023-02-20T08:59:21;96739.75;;;3.85;61.30
50394;BME280;36308;46.312;25.288;2023-02-20T09:01:46;96724.84;;;3.84;61.29
50394;BME280;36308;46.312;25.288;2023-02-20T09:04:12;96694.09;;;3.81;61.23
50394;BME280;36308;46.312;25.288;2023-02-20T09:06:37;96731.28;;;4.10;61.27
50394;BME280;36308;46.312;25.288;2023-02-20T09:09:03;96719.41;;;4.19;61.35
50394;BME280;36308;46.312;25.288;2023-02-20T09:11:29;96720.47;;;4.31;60.72
50394;BME280;36308;46.312;25.288;2023-02-20T09:13:54;96724.81;;;4.45;60.63
50394;BME280;36308;46.312;25.288;2023-02-20T09:16:22;96708.44;;;4.62;60.03
50394;BME280;36308;46.312;25.288;2023-02-20T09:18:47;96706.41;;;4.71;59.86
50394;BME280;36308;46.312;25.288;2023-02-20T09:21:15;96698.81;;;4.81;59.69
50394;BME280;36308;46.312;25.288;2023-02-20T09:23:41;96702.53;;;4.93;59.18
50394;BME280;36308;46.312;25.288;2023-02-20T09:26:06;96706.41;;;5.04;58.83
50394;BME280;36308;46.312;25.288;2023-02-20T09:28:32;96684.06;;;5.05;59.07
50394;BME280;36308;46.312;25.288;2023-02-20T09:30:58;96696.53;;;5.31;58.28
50394;BME280;36308;46.312;25.288;2023-02-20T09:33:25;96701.47;;;5.34;57.75
50394;BME280;36308;46.312;25.288;2023-02-20T09:35:52;96704.31;;;5.33;57.12
50394;BME280;36308;46.312;25.288;2023-02-20T09:38:20;96679.13;;;5.22;57.31
50394;BME280;36308;46.312;25.288;2023-02-20T09:40:49;96706.78;;;5.41;56.94
50394;BME280;36308;46.312;25.288;2023-02-20T09:48:22;96696.47;;;5.64;56.72
50394;BME280;36308;46.312;25.288;2023-02-20T09:50:56;96679.13;;;5.87;56.57
50394;BME280;36308;46.312;25.288;2023-02-20T09:53:32;96669.44;;;6.06;56.58
50394;BME280;36308;46.312;25.288;2023-02-20T09:56:00;96666.25;;;6.29;56.42
50394;BME280;36308;46.312;25.288;2023-02-20T10:01:01;96668.97;;;6.79;56.45
50394;BME280;36308;46.312;25.288;2023-02-20T10:03:33;96662.03;;;6.97;52.31
50394;BME280;36308;46.312;25.288;2023-02-20T10:06:03;96651.34;;;6.97;51.92
50394;BME280;36308;46.312;25.288;2023-02-20T10:08:35;96662.66;;;7.17;52.41
50394;BME280;36308;46.312;25.288;2023-02-20T10:11:02;96653.03;;;7.35;51.48
50394;BME280;36308;46.312;25.288;2023-02-20T10:13:54;96654.09;;;7.52;51.46
50394;BME280;36308;46.312;25.288;2023-02-20T10:16:38;96647.63;;;7.78;52.28
50394;BME280;36308;46.312;25.288;2023-02-20T10:19:25;96647.03;;;8.06;51.71
50394;BME280;36308;46.312;25.288;2023-02-20T10:27:15;96628.72;;;8.64;47.21
50394;BME280;36308;46.312;25.288;2023-02-20T10:29:44;96632.00;;;8.66;46.59
50394;BME280;36308;46.312;25.288;2023-02-20T10:32:17;96637.94;;;8.68;48.09
50394;BME280;36308;46.312;25.288;2023-02-20T10:35:03;96632.69;;;8.73;47.74
50394;BME280;36308;46.312;25.288;2023-02-20T10:37:36;96627.13;;;8.86;46.56
50394;BME280;36308;46.312;25.288;2023-02-20T10:45:29;96630.03;;;9.20;48.10
50394;BME280;36308;46.312;25.288;2023-02-20T10:48:04;96635.75;;;9.36;48.78
50394;BME280;36308;46.312;25.288;2023-02-20T10:51:19;96626.50;;;9.55;48.67
50394;BME280;36308;46.312;25.288;2023-02-20T10:54:03;96618.03;;;9.75;46.13
50394;BME280;36308;46.312;25.288;2023-02-20T10:56:33;96612.78;;;9.80;44.48
50394;BME280;36308;46.312;25.288;2023-02-20T11:01:34;96620.03;;;9.80;41.62
50394;BME280;36308;46.312;25.288;2023-02-20T11:04:18;96611.19;;;9.67;41.45
50394;BME280;36308;46.312;25.288;2023-02-20T11:06:49;96604.53;;;9.70;42.28
50394;BME280;36308;46.312;25.288;2023-02-20T11:09:16;96600.47;;;9.67;41.16
50394;BME280;36308;46.312;25.288;2023-02-20T11:11:44;96612.34;;;9.71;42.80
50394;BME280;36308;46.312;25.288;2023-02-20T11:14:14;96599.50;;;9.74;43.32
50394;BME280;36308;46.312;25.288;2023-02-20T11:16:45;96580.75;;;9.62;42.70
50394;BME280;36308;46.312;25.288;2023-02-20T11:21:47;96550.25;;;9.27;41.26
50394;BME280;36308;46.312;25.288;2023-02-20T11:29:53;96576.03;;;9.17;42.92
50394;BME280;36308;46.312;25.288;2023-02-20T11:34:45;96572.69;;;8.98;42.54
50394;BME280;36308;46.312;25.288;2023-02-20T11:37:11;96519.19;;;8.56;41.76
50394;BME280;36308;46.312;25.288;2023-02-20T11:39:45;96564.28;;;8.70;42.10
50394;BME280;36308;46.312;25.288;2023-02-20T11:42:16;96550.28;;;8.57;42.28
50394;BME280;36308;46.312;25.288;2023-02-20T11:44:43;96556.47;;;8.45;42.04
50394;BME280;36308;46.312;25.288;2023-02-20T11:47:25;96553.13;;;8.32;42.48
50394;BME280;36308;46.312;25.288;2023-02-20T11:50:13;96547.19;;;8.29;43.14
50394;BME280;36308;46.312;25.288;2023-02-20T11:52:55;96548.47;;;8.27;43.00
50394;BME280;36308;46.312;25.288;2023-02-20T11:55:24;96540.75;;;8.19;42.16
50394;BME280;36308;46.312;25.288;2023-02-20T11:57:50;96532.03;;;8.12;42.39
50394;BME280;36308;46.312;25.288;2023-02-20T12:00:22;96521.06;;;8.13;43.16
50394;BME280;36308;46.312;25.288;2023-02-20T12:02:54;96498.63;;;8.14;43.72
50394;BME280;36308;46.312;25.288;2023-02-20T12:05:21;96504.22;;;8.36;44.22
50394;BME280;36308;46.312;25.288;2023-02-20T12:08:00;96502.75;;;8.52;43.30
50394;BME280;36308;46.312;25.288;2023-02-20T12:10:41;96495.88;;;8.68;44.52
50394;BME280;36308;46.312;25.288;2023-02-20T12:13:12;96476.28;;;8.79;44.83
50394;BME280;36308;46.312;25.288;2023-02-20T12:15:39;96490.09;;;9.12;44.55
50394;BME280;36308;46.312;25.288;2023-02-20T12:18:27;96494.09;;;9.38;43.95
50394;BME280;36308;46.312;25.288;2023-02-20T12:21:01;96500.69;;;9.59;43.64
50394;BME280;36308;46.312;25.288;2023-02-20T12:23:38;96491.28;;;9.73;43.25
50394;BME280;36308;46.312;25.288;2023-02-20T12:29:22;96499.81;;;10.16;42.25
50394;BME280;36308;46.312;25.288;2023-02-20T12:40:20;96507.31;;;10.64;37.76
50394;BME280;36308;46.312;25.288;2023-02-20T12:43:05;96502.09;;;10.58;38.03
50394;BME280;36308;46.312;25.288;2023-02-20T13:01:11;96502.97;;;10.80;38.84
50394;BME280;36308;46.312;25.288;2023-02-20T13:06:46;96502.63;;;10.55;39.21
50394;BME280;36308;46.312;25.288;2023-02-20T13:11:54;96510.75;;;10.60;40.20
50394;BME280;36308;46.312;25.288;2023-02-20T13:14:36;96511.41;;;10.67;40.65
50394;BME280;36308;46.312;25.288;2023-02-20T13:20:17;96502.78;;;10.65;40.57
50394;BME280;36308;46.312;25.288;2023-02-20T13:23:00;96487.91;;;10.62;39.00
50394;BME280;36308;46.312;25.288;2023-02-20T13:25:39;96490.56;;;10.57;38.49
50394;BME280;36308;46.312;25.288;2023-02-20T13:28:32;96485.59;;;10.49;38.73
50394;BME280;36308;46.312;25.288;2023-02-20T13:33:37;96485.91;;;10.52;40.06
50394;BME280;36308;46.312;25.288;2023-02-20T13:36:15;96462.94;;;10.45;40.53
50394;BME280;36308;46.312;25.288;2023-02-20T13:46:55;96446.81;;;10.28;37.03
50394;BME280;36308;46.312;25.288;2023-02-20T13:57:21;96404.88;;;9.59;38.38
50394;BME280;36308;46.312;25.288;2023-02-20T13:59:51;96423.25;;;9.50;36.20
50394;BME280;36308;46.312;25.288;2023-02-20T14:02:21;96411.66;;;9.21;36.43
50394;BME280;36308;46.312;25.288;2023-02-20T14:05:02;96430.94;;;9.18;37.05
50394;BME280;36308;46.312;25.288;2023-02-20T14:07:42;96431.69;;;9.02;37.22
50394;BME280;36308;46.312;25.288;2023-02-20T14:10:33;96414.59;;;8.91;38.10
50394;BME280;36308;46.312;25.288;2023-02-20T14:15:30;96400.97;;;8.81;39.04
50394;BME280;36308;46.312;25.288;2023-02-20T14:17:57;96401.22;;;8.79;39.51
50394;BME280;36308;46.312;25.288;2023-02-20T14:20:40;96393.06;;;8.74;40.16
50394;BME280;36308;46.312;25.288;2023-02-20T14:23:15;96394.69;;;8.75;39.84
50394;BME280;36308;46.312;25.288;2023-02-20T14:26:36;96390.53;;;8.67;39.92
50394;BME280;36308;46.312;25.288;2023-02-20T14:28:44;96382.13;;;8.64;40.05
50394;BME280;36308;46.312;25.288;2023-02-20T14:31:22;96391.69;;;8.60;40.27
50394;BME280;36308;46.312;25.288;2023-02-20T14:33:59;96386.22;;;8.55;40.89
50394;BME280;36308;46.312;25.288;2023-02-20T14:42:04;96376.69;;;8.35;41.46
50394;BME280;36308;46.312;25.288;2023-02-20T14:44:31;96365.88;;;8.30;40.58
50394;BME280;36308;46.312;25.288;2023-02-20T14:47:11;96332.78;;;8.13;41.10
50394;BME280;36308;46.312;25.288;2023-02-20T14:49:38;96348.50;;;8.21;41.64
50394;BME280;36308;46.312;25.288;2023-02-20T14:52:28;96348.72;;;8.19;41.63
50394;BME280;36308;46.312;25.288;2023-02-20T14:55:03;96346.75;;;8.15;41.93
50394;BME280;36308;46.312;25.288;2023-02-20T14:57:30;96339.09;;;8.06;41.56
50394;BME280;36308;46.312;25.288;2023-02-20T15:00:09;96352.47;;;8.06;41.97
50394;BME280;36308;46.312;25.288;2023-02-20T15:02:35;96337.91;;;8.02;42.61
50394;BME280;36308;46.312;25.288;2023-02-20T15:05:05;96341.66;;;8.01;42.30
50394;BME280;36308;46.312;25.288;2023-02-20T15:07:31;96332.69;;;7.96;42.59
50394;BME280;36308;46.312;25.288;2023-02-20T15:09:59;96322.09;;;7.89;42.63
50394;BME280;36308;46.312;25.288;2023-02-20T15:12:35;96324.19;;;7.87;43.08
50394;BME280;36308;46.312;25.288;2023-02-20T15:15:11;96311.75;;;7.81;43.08
50394;BME280;36308;46.312;25.288;2023-02-20T15:17:42;96300.91;;;7.76;42.17
50394;BME280;36308;46.312;25.288;2023-02-20T15:25:40;96311.13;;;7.55;43.28
50394;BME280;36308;46.312;25.288;2023-02-20T15:28:27;96297.50;;;7.45;43.37